CheckWX is a tool to help pilots better visualize weather data.  It is not intended as a substitute for an official pre-flight weather briefing.

02:41:03 UTC

KCTY METAR
Cross City Airport
Cross City, Florida, USA
Current

26 mins ago

KCTY 120215Z AUTO 18003KT 10SM SCT050 BKN060 BKN075 28/26 A2990 RMK AO2 T02810263
Observed
Jul-12 @ 02:15 UTC
Wind
  • 180° at 3 KTS
Visibility
10 SM
Flight Rules
VFR
Cloud Levels
  • Scattered at 5,000' AGL
  • Broken at 6,000' AGL
  • Broken at 7,500' AGL
Temperature
28°C / 82°F
Dewpoint
26°C / 79°F
Humidity
89%
Altimeter
29.9" Hg
Pressure
1012.52 hPa
Previous

46 mins ago

KCTY 120155Z AUTO 16005KT 10SM BKN050 BKN060 BKN070 28/26 A2990 RMK AO2 T02840263
Observed
Jul-12 @ 01:55 UTC
Wind
  • 160° at 5 KTS
Visibility
10 SM
Flight Rules
VFR
Cloud Levels
  • Broken at 5,000' AGL
  • Broken at 6,000' AGL
  • Broken at 7,000' AGL
Temperature
28°C / 82°F
Dewpoint
26°C / 79°F
Humidity
89%
Altimeter
29.9" Hg
Pressure
1012.52 hPa
Previous

1 hour ago

KCTY 120135Z AUTO 15004KT 10SM BKN050 BKN070 28/26 A2989 RMK AO2 T02840262
Observed
Jul-12 @ 01:35 UTC
Wind
  • 150° at 4 KTS
Visibility
10 SM
Flight Rules
VFR
Cloud Levels
  • Broken at 5,000' AGL
  • Broken at 7,000' AGL
Temperature
28°C / 82°F
Dewpoint
26°C / 79°F
Humidity
89%
Altimeter
29.89" Hg
Pressure
1012.22 hPa